createdAt,value
2016-04-25T00:00:18.809Z,77.75
2016-04-25T00:01:18.953Z,77.94
2016-04-25T00:02:18.924Z,78.03
2016-04-25T00:03:18.941Z,77.94
2016-04-25T00:04:18.960Z,78.41
2016-04-25T00:05:18.948Z,78.5
2016-04-25T00:06:19.091Z,78.5
2016-04-25T00:07:19.093Z,77.75
2016-04-25T00:08:19.221Z,77.75
2016-04-25T00:09:19.051Z,77.75
2016-04-25T00:10:19.290Z,77.18
2016-04-25T00:11:19.230Z,77.37
2016-04-25T00:12:19.138Z,76.99
2016-04-25T00:13:19.218Z,77.56
2016-04-25T00:14:19.221Z,77.46
2016-04-25T00:15:19.271Z,77.46
2016-04-25T00:16:19.399Z,77.37
2016-04-25T00:17:19.293Z,77.37
2016-04-25T00:18:19.357Z,78.13
2016-04-25T00:19:19.328Z,78.79
2016-04-25T00:20:19.394Z,78.69
2016-04-25T00:21:19.445Z,78.69
2016-04-25T00:22:19.764Z,78.59
2016-04-25T00:23:19.470Z,78.59
2016-04-25T00:24:19.629Z,78.69
2016-04-25T00:25:19.507Z,78.59
2016-04-25T00:26:19.603Z,79.07
2016-04-25T00:27:20.278Z,79.26
2016-04-25T00:28:19.562Z,79.36
2016-04-25T00:29:19.705Z,79.36
2016-04-25T00:30:19.677Z,79.45
2016-04-25T00:31:19.695Z,79.55
2016-04-25T00:32:19.839Z,79.93
2016-04-25T00:33:19.764Z,78.79
2016-04-25T00:34:19.781Z,79.45
2016-04-25T00:35:19.815Z,79.07
2016-04-25T00:36:19.833Z,79.55
2016-04-25T00:37:19.868Z,79.26
2016-04-25T00:38:19.886Z,79.74
2016-04-25T00:39:19.920Z,80.02
2016-04-25T00:40:19.953Z,79.64
2016-04-25T00:41:20.019Z,80.11
2016-04-25T00:42:19.833Z,80.02
2016-04-25T00:43:20.072Z,79.93
2016-04-25T00:44:20.089Z,79.83
2016-04-25T00:45:19.999Z,79.26
2016-04-25T00:46:20.126Z,79.45
2016-04-25T00:47:20.192Z,79.83
2016-04-25T00:48:20.397Z,80.4
2016-04-25T00:49:20.275Z,79.98
2016-04-25T00:50:20.199Z,80.45
2016-04-25T00:51:20.265Z,80.55
2016-04-25T00:52:20.282Z,80.45
2016-04-25T00:53:20.224Z,81.4
2016-04-25T00:54:20.273Z,80.36
2016-04-25T00:55:20.401Z,80.55
2016-04-25T00:56:20.325Z,80.55
2016-04-25T00:57:20.344Z,80.64
2016-04-25T00:58:20.502Z,80.55
2016-04-25T00:59:20.412Z,80.93
2016-04-25T01:00:20.476Z,80.93
2016-04-25T01:01:20.509Z,80.45
2016-04-25T01:02:20.497Z,80.93
2016-04-25T01:03:20.626Z,81.02
2016-04-25T01:04:20.628Z,81.12
2016-04-25T01:05:20.662Z,81.3
2016-04-25T01:06:20.570Z,81.21
2016-04-25T01:07:20.605Z,81.59
2016-04-25T01:08:20.670Z,81.4
2016-04-25T01:09:20.704Z,81.68
2016-04-25T01:10:20.738Z,81.96
2016-04-25T01:11:20.911Z,81.3
2016-04-25T01:12:20.805Z,80.93
2016-04-25T01:13:20.777Z,80.83
2016-04-25T01:14:20.842Z,80.93
2016-04-25T01:15:20.860Z,81.4
2016-04-25T01:16:20.847Z,81.49
2016-04-25T01:17:20.882Z,81.21
2016-04-25T01:18:20.900Z,80.64
2016-04-25T01:19:21.027Z,80.93
2016-04-25T01:20:20.999Z,81.02
2016-04-25T01:21:21.079Z,81.12
2016-04-25T01:22:21.005Z,81.02
2016-04-25T01:23:21.038Z,80.74
2016-04-25T01:24:21.118Z,80.83
2016-04-25T01:25:21.074Z,81.02
2016-04-25T01:26:21.249Z,81.02
2016-04-25T01:27:22.737Z,81.02
2016-04-25T01:28:21.193Z,81.21
2016-04-25T01:29:21.289Z,81.3
2016-04-25T01:30:21.417Z,80.74
2016-04-25T01:31:21.295Z,81.12
2016-04-25T01:32:21.312Z,81.12
2016-04-25T01:33:21.362Z,80.83
2016-04-25T01:34:21.334Z,80.64
2016-04-25T01:35:21.398Z,81.3
2016-04-25T01:36:21.448Z,81.12
2016-04-25T01:37:21.451Z,81.59
2016-04-25T01:38:21.438Z,81.96
2016-04-25T01:39:21.503Z,81.96
2016-04-25T01:40:21.475Z,81.77
2016-04-25T01:41:21.509Z,81.68
2016-04-25T01:42:21.699Z,81.68
2016-04-25T01:43:21.701Z,81.68
2016-04-25T01:44:21.719Z,81.68
2016-04-25T01:45:21.675Z,82.34
2016-04-25T01:46:21.694Z,82.34
2016-04-25T01:47:21.713Z,81.77
2016-04-25T01:48:21.746Z,81.77
2016-04-25T01:49:21.827Z,81.87
2016-04-25T01:50:21.830Z,82.34
2016-04-25T01:51:21.832Z,82.53
2016-04-25T01:52:21.835Z,82.34
2016-04-25T01:53:21.885Z,81.96
2016-04-25T01:54:21.841Z,82.34
2016-04-25T01:55:21.968Z,81.68
2016-04-25T01:56:21.955Z,81.87
2016-04-25T01:57:21.973Z,82.53
2016-04-25T01:58:21.913Z,82.82
2016-04-25T01:59:22.104Z,82.44
2016-04-25T02:00:21.997Z,82.44
2016-04-25T02:01:22.219Z,82.53
2016-04-25T02:02:22.237Z,83.1
2016-04-25T02:03:22.240Z,82.72
2016-04-25T02:04:22.148Z,82.53
2016-04-25T02:05:22.307Z,82.34
2016-04-25T02:06:22.217Z,82.25
2016-04-25T02:07:22.298Z,82.44
2016-04-25T02:08:22.331Z,82.53
2016-04-25T02:09:22.287Z,82.72
2016-04-25T02:10:22.320Z,82.63
2016-04-25T02:11:22.293Z,83.39
2016-04-25T02:12:22.623Z,83.29
2016-04-25T02:13:22.344Z,83.29
2016-04-25T02:14:22.378Z,83.39
2016-04-25T02:15:22.522Z,82.82
2016-04-25T02:16:22.478Z,82.82
2016-04-25T02:17:22.449Z,83.39
2016-04-25T02:18:22.483Z,83.58
2016-04-25T02:19:22.501Z,83.01
2016-04-25T02:20:22.629Z,83.1
2016-04-25T02:21:22.648Z,82.82
2016-04-25T02:22:22.838Z,82.82
2016-04-25T02:23:22.699Z,83.2
2016-04-25T02:24:22.687Z,83.48
2016-04-25T02:25:22.782Z,83.76
2016-04-25T02:26:22.677Z,83.58
2016-04-25T02:27:22.946Z,83.1
2016-04-25T02:28:23.447Z,83.1
2016-04-25T02:29:22.763Z,82.72
2016-04-25T02:30:22.890Z,82.91
2016-04-25T02:31:22.846Z,82.53
2016-04-25T02:32:22.896Z,82.91
2016-04-25T02:33:22.899Z,82.44
2016-04-25T02:34:22.949Z,82.25
2016-04-25T02:35:23.013Z,82.72
2016-04-25T02:36:23.015Z,82.44
2016-04-25T02:37:23.034Z,82.82
2016-04-25T02:38:23.099Z,82.82
2016-04-25T02:39:23.117Z,83.2
2016-04-25T02:40:23.152Z,83.48
2016-04-25T02:41:23.201Z,83.76
2016-04-25T02:42:23.157Z,83.95
2016-04-25T02:43:23.144Z,83.95
2016-04-25T02:44:23.209Z,83.95
2016-04-25T02:45:23.228Z,83.95
2016-04-25T02:46:23.340Z,84.52
2016-04-25T02:47:23.342Z,84.48
2016-04-25T02:48:23.377Z,84.48
2016-04-25T02:49:23.333Z,84.33
2016-04-25T02:50:23.444Z,83.86
2016-04-25T02:51:23.385Z,84.05
2016-04-25T02:52:23.434Z,84.42
2016-04-25T02:53:23.421Z,84.9
2016-04-25T02:54:23.486Z,84.86
2016-04-25T02:55:23.535Z,85.52
2016-04-25T02:56:23.524Z,85.05
2016-04-25T02:57:23.541Z,84.86
2016-04-25T02:58:23.794Z,84.71
2016-04-25T02:59:23.594Z,85.42
2016-04-25T03:00:23.643Z,85.05
2016-04-25T03:01:23.693Z,85.42
2016-04-25T03:02:23.632Z,85.33
2016-04-25T03:03:23.761Z,85.42
2016-04-25T03:04:23.670Z,85.33
2016-04-25T03:05:23.875Z,85.8
2016-04-25T03:06:23.785Z,84.86
2016-04-25T03:07:23.756Z,85.05
2016-04-25T03:08:23.773Z,85.14
2016-04-25T03:09:23.854Z,85.24
2016-04-25T03:10:23.904Z,85.33
2016-04-25T03:11:23.985Z,85.24
2016-04-25T03:12:23.941Z,85.24
2016-04-25T03:13:24.100Z,85.33
2016-04-25T03:14:23.978Z,85.09
2016-04-25T03:15:24.011Z,84.81
2016-04-25T03:16:24.045Z,85.19
2016-04-25T03:17:24.142Z,84.42
2016-04-25T03:18:24.144Z,84.9
2016-04-25T03:19:24.117Z,85.14
2016-04-25T03:20:24.166Z,85.52
2016-04-25T03:21:24.246Z,85.24
2016-04-25T03:22:24.218Z,85.42
2016-04-25T03:23:24.361Z,85.52
2016-04-25T03:24:24.316Z,85.71
2016-04-25T03:25:24.366Z,85.61
2016-04-25T03:26:24.354Z,85.9
2016-04-25T03:27:24.435Z,86.18
2016-04-25T03:28:24.140Z,85.99
2016-04-25T03:29:24.424Z,86.37
2016-04-25T03:30:24.348Z,86.37
2016-04-25T03:31:24.492Z,86.56
2016-04-25T03:32:24.402Z,85.9
2016-04-25T03:33:24.543Z,85.71
2016-04-25T03:34:24.563Z,85.8
2016-04-25T03:35:24.518Z,85.99
2016-04-25T03:36:24.552Z,86.09
2016-04-25T03:37:24.571Z,86.37
2016-04-25T03:38:24.589Z,86.18
2016-04-25T03:39:24.685Z,85.8
2016-04-25T03:40:24.687Z,85.9
2016-04-25T03:41:24.706Z,85.8
2016-04-25T03:42:24.772Z,85.61
2016-04-25T03:43:25.150Z,85.9
2016-04-25T03:44:24.761Z,85.8
2016-04-25T03:45:24.858Z,85.99
2016-04-25T03:46:24.814Z,86.18
2016-04-25T03:47:24.786Z,85.8
2016-04-25T03:48:24.928Z,85.99
2016-04-25T03:49:24.900Z,85.66
2016-04-25T03:50:24.934Z,85.71
2016-04-25T03:51:24.889Z,85.61
2016-04-25T03:52:24.970Z,85.8
2016-04-25T03:53:25.067Z,85.9
2016-04-25T03:54:25.100Z,86.47
2016-04-25T03:55:25.088Z,85.57
2016-04-25T03:56:25.013Z,85.28
2016-04-25T03:57:25.141Z,84.61
2016-04-25T03:58:25.721Z,85.28
2016-04-25T03:59:25.160Z,85.19
2016-04-25T04:00:25.195Z,84.9
2016-04-25T04:01:25.245Z,84.81
2016-04-25T04:02:25.279Z,84.52
2016-04-25T04:03:25.359Z,84.9
2016-04-25T04:04:25.362Z,85.38
2016-04-25T04:05:25.380Z,85.09
2016-04-25T04:06:25.399Z,85.28
2016-04-25T04:07:25.417Z,85.57
2016-04-25T04:08:25.545Z,85.8
2016-04-25T04:09:25.516Z,85.38
2016-04-25T04:10:25.613Z,85.47
2016-04-25T04:11:25.475Z,85.38
2016-04-25T04:12:25.539Z,85.38
2016-04-25T04:13:26.058Z,85.85
2016-04-25T04:14:25.593Z,86.04
2016-04-25T04:15:25.517Z,85.57
2016-04-25T04:16:25.660Z,85.85
2016-04-25T04:17:25.678Z,85.85
2016-04-25T04:18:25.806Z,85.66
2016-04-25T04:19:25.809Z,85.38
2016-04-25T04:20:25.795Z,85
2016-04-25T04:21:26.206Z,85.47
2016-04-25T04:22:25.692Z,85.38
2016-04-25T04:23:25.742Z,85.28
2016-04-25T04:24:25.900Z,85.09
2016-04-25T04:25:25.934Z,85.28
2016-04-25T04:26:25.936Z,85.19
2016-04-25T04:27:25.925Z,84.81
2016-04-25T04:28:25.802Z,84.9
2016-04-25T04:29:25.977Z,84.61
2016-04-25T04:30:25.947Z,84.81
2016-04-25T04:31:26.044Z,84.9
2016-04-25T04:32:26.109Z,84.52
2016-04-25T04:33:26.128Z,84.14
2016-04-25T04:34:26.068Z,84.23
2016-04-25T04:35:26.024Z,84.52
2016-04-25T04:36:26.167Z,84.52
2016-04-25T04:37:26.154Z,84.9
2016-04-25T04:38:26.110Z,84.81
2016-04-25T04:39:26.206Z,84.81
2016-04-25T04:40:26.349Z,84.61
2016-04-25T04:41:26.352Z,84.42
2016-04-25T04:42:26.355Z,84.61
2016-04-25T04:43:27.295Z,84.81
2016-04-25T04:44:26.407Z,84.52
2016-04-25T04:45:26.394Z,84.71
2016-04-25T04:46:26.398Z,84.81
2016-04-25T04:47:26.447Z,84.9
2016-04-25T04:48:26.481Z,85.47
2016-04-25T04:49:26.498Z,85.09
2016-04-25T04:50:26.564Z,84.81
2016-04-25T04:51:26.536Z,85.57
2016-04-25T04:52:26.507Z,84.52
2016-04-25T04:53:26.603Z,83.95
2016-04-25T04:54:26.653Z,83.86
2016-04-25T04:55:26.686Z,83.95
2016-04-25T04:56:26.689Z,83.39
2016-04-25T04:57:26.708Z,83.29
2016-04-25T04:58:26.741Z,84.05
2016-04-25T04:59:26.775Z,84.23
2016-04-25T05:00:26.810Z,83.86
2016-04-25T05:01:26.766Z,83.48
2016-04-25T05:02:26.846Z,83.67
2016-04-25T05:03:26.865Z,83.05
2016-04-25T05:04:26.930Z,83.52
2016-04-25T05:05:26.871Z,83.14
2016-04-25T05:06:26.904Z,82.95
2016-04-25T05:07:26.985Z,83.1
2016-04-25T05:08:26.987Z,82.72
2016-04-25T05:09:26.974Z,83.48
2016-04-25T05:10:27.071Z,83.58
2016-04-25T05:11:27.043Z,83.95
2016-04-25T05:12:27.315Z,84.71
2016-04-25T05:13:27.408Z,83.67
2016-04-25T05:14:27.519Z,83.76
2016-04-25T05:15:27.377Z,83.58
2016-04-25T05:16:27.408Z,83.71
2016-04-25T05:17:27.479Z,83.86
2016-04-25T05:18:27.530Z,83.86
2016-04-25T05:19:27.516Z,83.39
2016-04-25T05:20:27.926Z,83.39
2016-04-25T05:21:27.631Z,83.58
2016-04-25T05:22:27.720Z,84.23
2016-04-25T05:23:27.650Z,84.14
2016-04-25T05:24:27.863Z,84.05
2016-04-25T05:25:27.839Z,84.52
2016-04-25T05:26:27.941Z,84.05
2016-04-25T05:27:28.055Z,84.05
2016-04-25T05:28:28.310Z,83.86
2016-04-25T05:29:27.893Z,83.67
2016-04-25T05:30:27.961Z,83.62
2016-04-25T05:31:27.934Z,82.95
2016-04-25T05:32:27.890Z,83.43
2016-04-25T05:33:28.097Z,83.9
2016-04-25T05:34:27.975Z,83.62
2016-04-25T05:35:27.979Z,83.9
2016-04-25T05:36:28.045Z,83.33
2016-04-25T05:37:28.142Z,83.14
2016-04-25T05:38:28.066Z,82.86
2016-04-25T05:39:28.117Z,82.29
2016-04-25T05:40:28.183Z,82.01
2016-04-25T05:41:28.279Z,82.01
2016-04-25T05:42:28.281Z,81.44
2016-04-25T05:43:28.348Z,81.82
2016-04-25T05:44:28.287Z,82.01
2016-04-25T05:45:28.211Z,81.53
2016-04-25T05:46:28.339Z,80.68
2016-04-25T05:47:28.327Z,81.06
2016-04-25T05:48:28.423Z,80.34
2016-04-25T05:49:28.364Z,80.63
2016-04-25T05:50:28.397Z,80.25
2016-04-25T05:51:28.477Z,80.15
2016-04-25T05:52:28.466Z,80.06
2016-04-25T05:53:28.483Z,79.39
2016-04-25T05:54:28.501Z,79.3
2016-04-25T05:55:28.552Z,78.54
2016-04-25T05:56:28.569Z,78.64
2016-04-25T05:57:28.666Z,77.4
2016-04-25T05:58:28.825Z,76.5
2016-04-25T05:59:28.827Z,77.35
2016-04-25T06:00:28.815Z,77.12
2016-04-25T06:01:28.801Z,77.4
2016-04-25T06:02:28.883Z,77.22
2016-04-25T06:03:28.948Z,77.54
2016-04-25T06:04:28.950Z,77.69
2016-04-25T06:05:28.891Z,78.45
2016-04-25T06:06:28.831Z,78.54
2016-04-25T06:07:28.912Z,79.68
2016-04-25T06:08:28.946Z,80.15
2016-04-25T06:09:28.917Z,79.58
2016-04-25T06:10:29.014Z,79.96
2016-04-25T06:11:29.047Z,79.68
2016-04-25T06:12:29.019Z,80.44
2016-04-25T06:13:29.272Z,80.44
2016-04-25T06:14:29.306Z,81.01
2016-04-25T06:15:29.136Z,80.25
2016-04-25T06:16:29.295Z,80.25
2016-04-25T06:17:29.142Z,79.21
2016-04-25T06:18:29.222Z,79.11
2016-04-25T06:19:29.334Z,78.64
2016-04-25T06:20:29.291Z,78.64
2016-04-25T06:21:29.293Z,78.64
2016-04-25T06:22:29.343Z,78.54
2016-04-25T06:23:29.315Z,78.64
2016-04-25T06:24:29.427Z,77.73
2016-04-25T06:25:29.430Z,78.02
2016-04-25T06:26:29.417Z,78.11
2016-04-25T06:27:29.420Z,77.83
2016-04-25T06:28:30.125Z,77.92
2016-04-25T06:29:29.472Z,77.73
2016-04-25T06:30:29.569Z,78.11
2016-04-25T06:31:29.571Z,77.25
2016-04-25T06:32:29.605Z,77.35
2016-04-25T06:33:29.827Z,77.83
2016-04-25T06:34:29.610Z,77.83
2016-04-25T06:35:29.692Z,77.54
2016-04-25T06:36:29.600Z,77.73
2016-04-25T06:37:29.743Z,77.64
2016-04-25T06:38:29.825Z,76.59
2016-04-25T06:39:29.810Z,77.25
2016-04-25T06:40:29.830Z,76.4
2016-04-25T06:41:29.973Z,76.5
2016-04-25T06:42:29.944Z,76.59
2016-04-25T06:43:31.368Z,76.31
2016-04-25T06:44:29.888Z,75.93
2016-04-25T06:45:29.921Z,76.03
2016-04-25T06:46:29.924Z,76.5
2016-04-25T06:47:29.973Z,76.87
2016-04-25T06:48:29.993Z,77.25
2016-04-25T06:49:30.072Z,76.68
2016-04-25T06:50:30.107Z,76.21
2016-04-25T06:51:30.203Z,75.74
2016-04-25T06:52:30.174Z,75.74
2016-04-25T06:53:30.208Z,75.55
2016-04-25T06:54:30.243Z,74.83
2016-04-25T06:55:30.464Z,74.83
2016-04-25T06:56:30.310Z,75.07
2016-04-25T06:57:30.344Z,75.07
2016-04-25T06:58:30.347Z,74.83
2016-04-25T06:59:30.506Z,74.92
2016-04-25T07:00:30.446Z,74.64
2016-04-25T07:01:30.370Z,73.97
2016-04-25T07:02:30.388Z,73.79
2016-04-25T07:03:30.469Z,73.79
2016-04-25T07:04:30.441Z,73.03
2016-04-25T07:05:30.475Z,73.22
2016-04-25T07:06:30.509Z,73.41
2016-04-25T07:07:32.089Z,73.03
2016-04-25T07:08:30.514Z,73.5
2016-04-25T07:09:30.736Z,73.03
2016-04-25T07:10:30.629Z,72.36
2016-04-25T07:11:30.757Z,72.74
2016-04-25T07:12:32.150Z,72.74
2016-04-25T07:13:30.934Z,72.17
2016-04-25T07:14:30.827Z,71.41
2016-04-25T07:15:30.815Z,70.88
2016-04-25T07:16:30.942Z,70.78
2016-04-25T07:17:32.429Z,71.17
2016-04-25T07:18:31.104Z,70.88
2016-04-25T07:19:30.919Z,69.93
2016-04-25T07:20:31.093Z,69.74
2016-04-25T07:21:31.190Z,68.98
2016-04-25T07:22:32.833Z,69.17
2016-04-25T07:23:31.179Z,68.13
2016-04-25T07:24:31.026Z,68.07
2016-04-25T07:25:31.232Z,68.26
2016-04-25T07:26:31.140Z,68.32
2016-04-25T07:27:32.987Z,67.46
2016-04-25T07:28:31.662Z,65.5
2016-04-25T07:29:31.070Z,64.69
2016-04-25T07:30:31.292Z,64.37
2016-04-25T07:31:31.529Z,63.42
2016-04-25T07:32:31.251Z,62.21
2016-04-25T07:33:31.363Z,61.55
2016-04-25T07:34:31.459Z,61.17
2016-04-25T07:35:31.337Z,59.96
2016-04-25T07:36:31.417Z,60.63
2016-04-25T07:37:33.592Z,59.01
2016-04-25T07:38:31.485Z,58
2016-04-25T07:39:31.536Z,58.66
2016-04-25T07:40:31.569Z,58.44
2016-04-25T07:41:31.697Z,57.62
2016-04-25T07:42:33.371Z,58.47
2016-04-25T07:43:31.796Z,58.66
2016-04-25T07:44:31.704Z,59.87
2016-04-25T07:45:31.833Z,59.68
2016-04-25T07:46:31.741Z,57.52
2016-04-25T07:47:31.760Z,56.1
2016-04-25T07:48:31.809Z,55.27
2016-04-25T07:49:32.046Z,53.49
2016-04-25T07:50:31.955Z,54.15
2016-04-25T07:51:32.114Z,55.17
2016-04-25T07:52:34.055Z,55.27
2016-04-25T07:53:31.885Z,54.32
2016-04-25T07:54:32.013Z,52.72
2016-04-25T07:55:31.969Z,52.84
2016-04-25T07:56:32.065Z,55.17
2016-04-25T07:57:32.864Z,56.51
2016-04-25T07:58:32.134Z,57.62
2016-04-25T07:59:32.136Z,59.49
2016-04-25T08:00:32.139Z,60.13
2016-04-25T08:01:32.235Z,61.55
2016-04-25T08:02:32.144Z,62.02
2016-04-25T08:03:32.365Z,60.98
2016-04-25T08:04:32.243Z,59.3
2016-04-25T08:05:32.339Z,57.24
2016-04-25T08:06:32.311Z,54.6
2016-04-25T08:07:33.876Z,52.72
2016-04-25T08:08:32.378Z,51.68
2016-04-25T08:09:32.413Z,49.9
2016-04-25T08:10:32.650Z,47.54
2016-04-25T08:11:32.466Z,46.23
2016-04-25T08:12:32.898Z,47.11
2016-04-25T08:13:33.245Z,49.63
2016-04-25T08:14:32.639Z,49.99
2016-04-25T08:15:32.563Z,51.32
2016-04-25T08:16:32.721Z,52.75
2016-04-25T08:17:32.803Z,53.96
2016-04-25T08:18:32.742Z,54.25
2016-04-25T08:19:33.261Z,54.69
2016-04-25T08:20:32.904Z,54.41
2016-04-25T08:21:32.875Z,54.22
2016-04-25T08:22:32.926Z,54.15
2016-04-25T08:23:32.882Z,54.22
2016-04-25T08:24:33.009Z,55.15
2016-04-25T08:25:33.184Z,55.05
2016-04-25T08:26:33.140Z,55.05
2016-04-25T08:27:33.064Z,54.86
2016-04-25T08:28:33.005Z,54
2016-04-25T08:29:33.539Z,52.89
2016-04-25T08:30:33.245Z,52.82
2016-04-25T08:31:33.231Z,53.3
2016-04-25T08:32:33.453Z,54.6
2016-04-25T08:33:33.299Z,56
2016-04-25T08:34:33.350Z,56
2016-04-25T08:35:33.336Z,55.24
2016-04-25T08:36:33.386Z,55.15
2016-04-25T08:37:33.482Z,54.5
2016-04-25T08:38:33.532Z,55.08
2016-04-25T08:39:33.472Z,55.15
2016-04-25T08:40:33.505Z,54.19
2016-04-25T08:41:33.545Z,52.98
2016-04-25T08:42:33.563Z,51.49
2016-04-25T08:43:33.706Z,50.73
2016-04-25T08:44:33.819Z,49.68
2016-04-25T08:45:33.665Z,50.06
2016-04-25T08:46:33.699Z,49.77
2016-04-25T08:47:33.764Z,49.68
2016-04-25T08:48:33.782Z,49.49
2016-04-25T08:49:33.801Z,51.27
2016-04-25T08:50:33.787Z,51.46
2016-04-25T08:51:33.931Z,51.46
2016-04-25T08:52:34.059Z,51.37
2016-04-25T08:53:34.030Z,49.58
2016-04-25T08:54:34.064Z,49.27
2016-04-25T08:55:34.098Z,50.32
2016-04-25T08:56:34.053Z,50.32
2016-04-25T08:57:34.103Z,50.35
2016-04-25T08:58:35.216Z,50.25
2016-04-25T08:59:34.015Z,50.73
2016-04-25T09:00:34.189Z,51.08
2016-04-25T09:01:34.239Z,50.89
2016-04-25T09:02:34.241Z,52.13
2016-04-25T09:03:34.369Z,51.93
2016-04-25T09:04:34.450Z,51.18
2016-04-25T09:05:34.360Z,51.27
2016-04-25T09:06:34.393Z,51.08
2016-04-25T09:07:34.443Z,51.53
2016-04-25T09:08:34.524Z,51.53
2016-04-25T09:09:34.636Z,51.34
2016-04-25T09:10:34.529Z,51.91
2016-04-25T09:11:34.547Z,51.91
2016-04-25T09:12:34.690Z,51.72
2016-04-25T09:13:34.646Z,51.34
2016-04-25T09:14:35.509Z,51.53
2016-04-25T09:15:34.620Z,51.06
2016-04-25T09:16:34.721Z,50.6
2016-04-25T09:17:34.708Z,50.23
2016-04-25T09:18:34.836Z,50.29
2016-04-25T09:19:34.947Z,50.48
2016-04-25T09:20:34.872Z,49.54
2016-04-25T09:21:34.938Z,49.54
2016-04-25T09:22:34.972Z,49.54
2016-04-25T09:23:35.068Z,49.73
2016-04-25T09:24:34.977Z,50.23
2016-04-25T09:25:35.042Z,49.44
2016-04-25T09:26:34.982Z,48.99
2016-04-25T09:27:35.032Z,48.23
2016-04-25T09:28:35.113Z,47.87
2016-04-25T09:29:35.099Z,48.06
2016-04-25T09:30:35.196Z,48.06
2016-04-25T09:31:35.151Z,49.18
2016-04-25T09:32:35.233Z,48.9
2016-04-25T09:33:35.298Z,48.9
2016-04-25T09:34:35.269Z,49.27
2016-04-25T09:35:35.287Z,49.65
2016-04-25T09:36:35.368Z,50.04
2016-04-25T09:37:35.403Z,49.56
2016-04-25T09:38:35.452Z,49.46
2016-04-25T09:39:35.455Z,49.75
2016-04-25T09:40:35.504Z,50.04
2016-04-25T09:41:35.538Z,50.04
2016-04-25T09:42:49.681Z,49.91
2016-04-25T09:43:35.637Z,50.13
2016-04-25T09:44:35.796Z,49.82
2016-04-25T09:45:35.627Z,50.01
2016-04-25T09:46:35.692Z,50.01
2016-04-25T09:47:35.742Z,49.35
2016-04-25T09:48:35.775Z,49.85
2016-04-25T09:49:35.966Z,50.2
2016-04-25T09:50:36.110Z,50.01
2016-04-25T09:51:36.268Z,48.61
2016-04-25T09:52:36.021Z,47.02
2016-04-25T09:53:36.132Z,44.18
2016-04-25T09:54:36.057Z,43.35
2016-04-25T09:55:36.341Z,43.82
2016-04-25T09:56:36.063Z,41.82
2016-04-25T09:57:36.096Z,40.63
2016-04-25T09:58:36.177Z,40.81
2016-04-25T09:59:36.165Z,41.29
2016-04-25T10:00:36.183Z,41.08
2016-04-25T10:01:36.201Z,40.91
2016-04-25T10:02:36.251Z,39.76
2016-04-25T10:03:36.300Z,39.95
2016-04-25T10:04:36.537Z,41.82
2016-04-25T10:05:36.353Z,42.11
2016-04-25T10:06:36.418Z,41.72
2016-04-25T10:07:36.670Z,40.03
2016-04-25T10:08:36.454Z,39.94
2016-04-25T10:09:36.551Z,41.17
2016-04-25T10:10:36.523Z,42.2
2016-04-25T10:11:36.556Z,43.63
2016-04-25T10:12:36.730Z,44.27
2016-04-25T10:13:36.859Z,45.51
2016-04-25T10:14:37.596Z,45.97
2016-04-25T10:15:36.739Z,44.54
2016-04-25T10:16:36.773Z,42.94
2016-04-25T10:17:36.791Z,39.56
2016-04-25T10:18:36.856Z,37.12
2016-04-25T10:19:36.906Z,36.73
2016-04-25T10:20:37.066Z,37.76
2016-04-25T10:21:36.974Z,39.27
2016-04-25T10:22:37.007Z,40.48
2016-04-25T10:23:37.229Z,40.85
2016-04-25T10:24:37.138Z,41.33
2016-04-25T10:25:37.219Z,41.61
2016-04-25T10:26:37.097Z,40.85
2016-04-25T10:27:37.334Z,39.15
2016-04-25T10:28:37.446Z,37.29
2016-04-25T10:29:37.605Z,36.35
2016-04-25T10:30:37.249Z,35.99
2016-04-25T10:31:37.413Z,37.12
2016-04-25T10:32:37.337Z,39.29
2016-04-25T10:33:37.402Z,41.16
2016-04-25T10:34:37.428Z,40.2
2016-04-25T10:35:37.402Z,38.62
2016-04-25T10:36:37.467Z,37.3
2016-04-25T10:37:37.532Z,35.8
2016-04-25T10:38:37.567Z,34
2016-04-25T10:39:37.585Z,35.53
2016-04-25T10:40:37.651Z,35.49
2016-04-25T10:41:37.653Z,36.44
2016-04-25T10:42:37.733Z,36.54
2016-04-25T10:43:37.689Z,37.38
2016-04-25T10:44:38.176Z,38.53
2016-04-25T10:45:37.820Z,40.77
2016-04-25T10:46:37.853Z,39.92
2016-04-25T10:47:37.950Z,38.71
2016-04-25T10:48:37.984Z,39.76
2016-04-25T10:49:38.050Z,40.89
2016-04-25T10:50:38.052Z,41.72
2016-04-25T10:51:38.133Z,42.56
2016-04-25T10:52:38.088Z,42.85
2016-04-25T10:53:38.138Z,43.11
2016-04-25T10:54:38.156Z,43.68
2016-04-25T10:55:38.191Z,44.35
2016-04-25T10:56:38.240Z,44.45
2016-04-25T10:57:38.258Z,44.54
2016-04-25T10:58:38.307Z,43.68
2016-04-25T10:59:38.405Z,42.44
2016-04-25T11:00:38.391Z,42.16
2016-04-25T11:01:38.394Z,41.42
2016-04-25T11:02:38.428Z,41.13
2016-04-25T11:03:38.524Z,41.04
2016-04-25T11:04:38.543Z,41.23
2016-04-25T11:17:21.341Z,41.97
2016-04-25T11:18:07.219Z,41.69
2016-04-25T11:19:07.253Z,41.49
2016-04-25T11:20:07.286Z,41.3
2016-04-25T11:21:07.320Z,41.59
2016-04-25T11:22:07.355Z,42.07
2016-04-25T11:23:07.372Z,42.35
2016-04-25T11:24:07.422Z,41.88
2016-04-25T11:25:07.455Z,42.25
2016-04-25T11:26:07.490Z,42.16
2016-04-25T11:27:07.524Z,42.35
2016-04-25T11:28:07.542Z,42.07
2016-04-25T11:29:07.577Z,42.07
2016-04-25T11:30:07.626Z,40.94
2016-04-25T11:31:07.644Z,40.18
2016-04-25T11:32:07.678Z,41.13
2016-04-25T11:33:07.712Z,40.47
2016-04-25T11:34:07.746Z,41.02
2016-04-25T11:35:07.779Z,41.3
2016-04-25T11:36:07.829Z,40.92
2016-04-25T11:37:07.848Z,40.83
2016-04-25T11:38:07.897Z,40.75
2016-04-25T11:39:07.915Z,40.26
2016-04-25T11:40:07.949Z,40.26
2016-04-25T11:41:07.998Z,41.02
2016-04-25T11:42:08.017Z,41.21
2016-04-25T11:43:08.051Z,40.73
2016-04-25T11:44:07.944Z,40.83
2016-04-25T11:45:08.119Z,41.11
2016-04-25T11:46:08.153Z,41.3
2016-04-25T11:47:08.036Z,41.59
2016-04-25T11:48:08.225Z,41.78
2016-04-25T11:49:08.249Z,41.78
2016-04-25T11:50:08.283Z,41.21
2016-04-25T11:51:08.349Z,41.21
2016-04-25T11:52:08.351Z,41.23
2016-04-25T11:53:08.390Z,40.75
2016-04-25T11:54:08.423Z,40.75
2016-04-25T11:55:08.457Z,40.66
2016-04-25T11:56:08.491Z,40.75
2016-04-25T11:57:08.510Z,41.04
2016-04-25T11:58:08.544Z,40.94
2016-04-25T11:59:08.453Z,40.94
2016-04-25T12:00:08.471Z,40.85
2016-04-25T12:01:08.661Z,41.13
2016-04-25T12:02:08.711Z,41.99
2016-04-25T12:03:08.714Z,41.97
2016-04-25T12:04:08.748Z,42.16
2016-04-25T12:05:08.781Z,42.35
2016-04-25T12:06:08.815Z,42.56
2016-04-25T12:07:08.849Z,43.11
2016-04-25T12:08:08.883Z,43.21
2016-04-25T12:09:08.917Z,43.68
2016-04-25T12:10:08.951Z,43.68
2016-04-25T12:11:08.985Z,43.49
2016-04-25T12:12:09.019Z,43.42
2016-04-25T12:13:09.053Z,42.76
2016-04-25T12:14:09.086Z,41.8
2016-04-25T12:15:09.152Z,41.52
2016-04-25T12:16:09.169Z,42.25
2016-04-25T12:17:09.188Z,41.69
2016-04-25T12:18:09.222Z,42.25
2016-04-25T12:19:09.241Z,42.44
2016-04-25T12:20:09.291Z,42.92
2016-04-25T12:21:09.324Z,43.21
2016-04-25T12:22:09.358Z,43.59
2016-04-25T12:23:09.377Z,44.54
2016-04-25T12:24:09.426Z,45.59
2016-04-25T12:25:09.460Z,46.89
2016-04-25T12:26:09.479Z,48.71
2016-04-25T12:27:09.512Z,50.32
2016-04-25T12:28:09.546Z,50.89
2016-04-25T12:29:09.955Z,51.82
2016-04-25T12:30:09.677Z,51.91
2016-04-25T12:31:09.648Z,50.13
2016-04-25T12:32:09.667Z,49.75
2016-04-25T12:33:09.701Z,48.42
2016-04-25T12:34:09.750Z,47.56
2016-04-25T12:35:09.768Z,46.73
2016-04-25T12:36:09.802Z,47.02
2016-04-25T12:37:09.836Z,45.97
2016-04-25T12:38:09.870Z,45.8
2016-04-25T12:39:09.903Z,44.85
2016-04-25T12:40:09.938Z,44.56
2016-04-25T12:41:09.972Z,44.37
2016-04-25T12:42:10.006Z,44.78
2016-04-25T12:43:10.024Z,43.44
2016-04-25T12:44:10.230Z,43.82
2016-04-25T12:45:10.936Z,44.3
2016-04-25T12:46:10.125Z,45.61
2016-04-25T12:47:10.161Z,45.89
2016-04-25T12:48:10.210Z,47.04
2016-04-25T12:49:10.227Z,47.78
2016-04-25T12:50:10.278Z,47.49
2016-04-25T12:51:10.311Z,48.06
2016-04-25T12:52:10.345Z,47.78
2016-04-25T12:53:10.363Z,48.06
2016-04-25T12:54:10.413Z,48.63
2016-04-25T12:55:10.431Z,48.73
2016-04-25T12:56:10.466Z,48.82
2016-04-25T12:57:10.504Z,47.58
2016-04-25T12:58:10.538Z,46.94
2016-04-25T12:59:10.416Z,47.13
2016-04-25T13:00:11.559Z,47.04
2016-04-25T13:01:10.640Z,47.04
2016-04-25T13:02:10.690Z,45.83
2016-04-25T13:03:10.723Z,44.59
2016-04-25T13:04:10.742Z,44.01
2016-04-25T13:05:10.792Z,43.84
2016-04-25T13:06:10.669Z,43.65
2016-04-25T13:07:10.890Z,44.87